createdAt,value
2023-02-11T00:01:08.186Z,11.40
2023-02-11T00:03:37.350Z,12.60
2023-02-11T00:06:09.161Z,12.43
2023-02-11T00:08:38.707Z,12.40
2023-02-11T00:11:06.975Z,12.43
2023-02-11T00:13:34.737Z,12.17
2023-02-11T00:16:07.708Z,11.77
2023-02-11T00:18:36.395Z,11.77
2023-02-11T00:21:08.442Z,11.97
2023-02-11T00:23:37.959Z,11.80
2023-02-11T00:26:06.354Z,11.57
2023-02-11T00:28:33.995Z,13.07
2023-02-11T00:31:02.629Z,13.00
2023-02-11T00:33:30.383Z,12.83
2023-02-11T00:35:58.057Z,13.23
2023-02-11T00:38:25.765Z,13.53
2023-02-11T00:40:54.723Z,12.73
2023-02-11T00:43:22.431Z,13.37
2023-02-11T00:45:50.498Z,12.97
2023-02-11T00:48:18.409Z,13.07
2023-02-11T00:50:46.107Z,13.00
2023-02-11T00:53:13.899Z,12.40
2023-02-11T00:55:41.551Z,12.37
2023-02-11T00:58:10.583Z,13.20
2023-02-11T01:00:38.364Z,13.53
2023-02-11T01:03:06.071Z,12.83
2023-02-11T01:05:33.967Z,13.37
2023-02-11T01:08:01.705Z,12.97
2023-02-11T01:10:29.592Z,12.93
2023-02-11T01:12:57.302Z,12.27
2023-02-11T01:15:26.697Z,11.40
2023-02-11T01:17:54.427Z,10.73
2023-02-11T01:20:24.629Z,10.80
2023-02-11T01:22:52.449Z,11.37
2023-02-11T01:25:20.239Z,10.37
2023-02-11T01:27:47.876Z,11.50
2023-02-11T01:30:15.557Z,10.23
2023-02-11T01:32:44.597Z,9.77
2023-02-11T01:35:12.284Z,10.60
2023-02-11T01:37:40.015Z,10.37
2023-02-11T01:40:13.241Z,10.43
2023-02-11T01:42:41.018Z,10.97
2023-02-11T01:45:41.723Z,10.90
2023-02-11T01:48:12.260Z,11.13
2023-02-11T01:50:41.427Z,10.97
2023-02-11T01:53:23.922Z,10.57
2023-02-11T01:56:09.942Z,11.03
2023-02-11T01:58:39.765Z,10.40
2023-02-11T02:01:08.165Z,10.50
2023-02-11T02:03:39.057Z,11.47
2023-02-11T02:06:10.846Z,9.90
2023-02-11T02:08:41.765Z,11.50
2023-02-11T02:11:09.899Z,11.17
2023-02-11T02:13:37.646Z,11.87
2023-02-11T02:16:09.843Z,10.77
2023-02-11T02:18:45.129Z,11.07
2023-02-11T02:21:48.720Z,11.07
2023-02-11T02:24:43.827Z,10.73
2023-02-11T02:27:26.102Z,11.20
2023-02-11T02:30:34.161Z,11.00
2023-02-11T02:33:22.780Z,9.70
2023-02-11T02:35:56.067Z,9.67
2023-02-11T02:38:26.651Z,9.70
2023-02-11T02:40:57.010Z,9.57
2023-02-11T02:43:25.944Z,8.73
2023-02-11T02:45:53.627Z,9.57
2023-02-11T02:48:31.568Z,9.70
2023-02-11T02:51:11.521Z,9.10
2023-02-11T02:53:48.235Z,9.63
2023-02-11T02:56:21.675Z,9.63
2023-02-11T02:59:27.600Z,10.13
2023-02-11T03:02:05.406Z,8.87
2023-02-11T03:04:37.761Z,9.00
2023-02-11T03:07:10.129Z,8.70
2023-02-11T03:09:40.584Z,8.50
2023-02-11T03:12:08.602Z,8.40
2023-02-11T03:14:37.231Z,8.47
2023-02-11T03:17:06.293Z,8.60
2023-02-11T03:19:38.006Z,8.40
2023-02-11T03:24:51.893Z,6.93
2023-02-11T03:27:21.813Z,6.57
2023-02-11T03:29:54.618Z,6.77
2023-02-11T03:32:27.947Z,6.47
2023-02-11T03:34:59.466Z,6.63
2023-02-11T03:37:32.003Z,6.07
2023-02-11T03:40:03.673Z,6.17
2023-02-11T03:42:34.847Z,6.47
2023-02-11T03:45:06.753Z,6.03
2023-02-11T03:47:36.553Z,6.00
2023-02-11T03:50:08.028Z,6.17
2023-02-11T03:52:36.566Z,5.70
2023-02-11T03:55:07.374Z,5.93
2023-02-11T03:57:35.171Z,5.60
2023-02-11T04:00:02.899Z,5.17
2023-02-11T04:02:32.337Z,5.30
2023-02-11T04:05:00.237Z,6.07
2023-02-11T04:07:29.340Z,5.63
2023-02-11T04:09:56.983Z,5.57
2023-02-11T04:12:24.606Z,5.73
2023-02-11T04:14:52.386Z,5.33
2023-02-11T04:17:20.045Z,5.83
2023-02-11T04:19:47.751Z,6.03
2023-02-11T04:25:03.100Z,5.27
2023-02-11T04:27:30.999Z,5.33
2023-02-11T04:29:58.626Z,6.50
2023-02-11T04:32:26.366Z,5.73
2023-02-11T04:34:54.833Z,5.37
2023-02-11T04:37:22.485Z,5.70
2023-02-11T04:39:50.181Z,5.57
2023-02-11T04:42:19.211Z,5.70
2023-02-11T04:44:46.871Z,6.10
2023-02-11T04:47:16.301Z,5.80
2023-02-11T04:49:43.945Z,6.00
2023-02-11T04:52:11.890Z,5.57
2023-02-11T04:54:39.706Z,5.90
2023-02-11T04:57:07.572Z,5.80
2023-02-11T04:59:36.592Z,5.97
2023-02-11T05:02:05.131Z,5.80
2023-02-11T05:04:32.934Z,5.67
2023-02-11T05:07:00.684Z,6.27
2023-02-11T05:09:28.327Z,5.70
2023-02-11T05:11:55.995Z,6.50
2023-02-11T05:14:23.949Z,6.70
2023-02-11T05:16:53.077Z,5.73
2023-02-11T05:19:20.717Z,6.20
2023-02-11T05:22:01.805Z,5.50
2023-02-11T05:24:30.513Z,6.03
2023-02-11T05:26:58.200Z,5.57
2023-02-11T05:29:25.914Z,5.63
2023-02-11T05:31:55.037Z,5.77
2023-02-11T05:34:22.796Z,5.20
2023-02-11T05:36:50.492Z,5.80
2023-02-11T05:39:18.151Z,5.77
2023-02-11T05:41:45.878Z,5.87
2023-02-11T05:44:13.534Z,5.83
2023-02-11T05:46:41.250Z,5.70
2023-02-11T05:49:10.305Z,6.00
2023-02-11T05:51:37.959Z,5.60
2023-02-11T05:54:05.998Z,5.20
2023-02-11T05:56:33.644Z,6.03
2023-02-11T05:59:01.681Z,5.80
2023-02-11T06:01:29.328Z,5.87
2023-02-11T06:03:57.197Z,5.63
2023-02-11T06:06:26.828Z,5.63
2023-02-11T06:08:54.488Z,5.53
2023-02-11T06:11:22.250Z,5.30
2023-02-11T06:13:49.946Z,5.80
2023-02-11T06:16:17.788Z,5.97
2023-02-11T06:18:45.508Z,5.93
2023-02-11T06:21:13.610Z,6.27
2023-02-11T06:23:43.597Z,6.17
2023-02-11T06:26:17.955Z,5.50
2023-02-11T06:28:45.818Z,5.57
2023-02-11T06:31:13.949Z,5.37
2023-02-11T06:33:41.853Z,5.53
2023-02-11T06:36:15.099Z,5.53
2023-02-11T06:38:44.413Z,5.47
2023-02-11T06:41:12.730Z,6.30
2023-02-11T06:43:40.691Z,6.13
2023-02-11T06:46:08.552Z,8.17
2023-02-11T06:48:36.874Z,8.60
2023-02-11T06:51:05.707Z,8.17
2023-02-11T06:53:35.638Z,7.13
2023-02-11T06:56:06.333Z,7.57
2023-02-11T06:58:34.361Z,7.23
2023-02-11T07:01:06.125Z,6.77
2023-02-11T07:03:34.802Z,6.40
2023-02-11T07:06:02.516Z,6.90
2023-02-11T07:08:30.193Z,5.90
2023-02-11T07:10:57.836Z,5.67
2023-02-11T07:13:26.895Z,6.00
2023-02-11T07:15:54.700Z,5.80
2023-02-11T07:18:22.364Z,6.00
2023-02-11T07:20:50.068Z,6.00
2023-02-11T07:23:17.695Z,6.00
2023-02-11T07:25:45.338Z,5.97
2023-02-11T07:28:13.035Z,5.70
2023-02-11T07:30:42.183Z,6.13
2023-02-11T07:33:09.920Z,5.97
2023-02-11T07:35:37.630Z,5.00
2023-02-11T07:38:05.275Z,5.73
2023-02-11T07:40:32.986Z,6.43
2023-02-11T07:43:01.764Z,6.50
2023-02-11T07:45:29.601Z,7.17
2023-02-11T07:47:58.693Z,6.80
2023-02-11T07:50:26.393Z,6.57
2023-02-11T07:52:54.046Z,6.83
2023-02-11T07:55:21.707Z,7.10
2023-02-11T07:57:49.489Z,6.83
2023-02-11T08:00:20.825Z,7.10
2023-02-11T08:02:48.772Z,7.77
2023-02-11T08:05:17.907Z,7.50
2023-02-11T08:07:45.595Z,6.87
2023-02-11T08:10:13.241Z,6.80
2023-02-11T08:12:40.898Z,7.00
2023-02-11T08:15:09.298Z,6.27
2023-02-11T08:17:37.002Z,5.33
2023-02-11T08:20:04.984Z,6.10
2023-02-11T08:22:42.065Z,5.30
2023-02-11T08:25:09.710Z,5.03
2023-02-11T08:27:37.355Z,4.90
2023-02-11T08:30:05.711Z,5.47
2023-02-11T08:32:35.717Z,5.17
2023-02-11T08:35:03.354Z,5.10
2023-02-11T08:37:33.079Z,5.53
2023-02-11T08:40:02.212Z,5.13
2023-02-11T08:42:29.839Z,4.60
2023-02-11T08:44:57.542Z,4.83
2023-02-11T08:47:25.181Z,5.67
2023-02-11T08:49:52.833Z,6.23
2023-02-11T08:52:20.455Z,6.17
2023-02-11T08:54:48.229Z,6.23
2023-02-11T08:57:17.394Z,5.87
2023-02-11T08:59:45.032Z,5.47
2023-02-11T09:02:14.071Z,5.47
2023-02-11T09:04:42.022Z,5.50
2023-02-11T09:07:09.737Z,5.87
2023-02-11T09:09:37.433Z,6.20
2023-02-11T09:12:05.614Z,5.80
2023-02-11T09:14:35.046Z,6.17
2023-02-11T09:17:02.840Z,5.50
2023-02-11T09:19:30.598Z,5.20
2023-02-11T09:21:59.032Z,5.70
2023-02-11T09:24:26.707Z,5.60
2023-02-11T09:26:54.482Z,5.37
2023-02-11T09:29:22.170Z,5.83
2023-02-11T09:31:51.301Z,5.63
2023-02-11T09:34:19.055Z,5.23
2023-02-11T09:36:47.047Z,5.07
2023-02-11T09:39:17.910Z,5.20
2023-02-11T09:42:04.161Z,5.37
2023-02-11T09:44:34.149Z,4.80
2023-02-11T09:47:05.210Z,5.40
2023-02-11T09:49:36.656Z,4.47
2023-02-11T09:52:07.953Z,5.23
2023-02-11T09:54:38.923Z,4.93
2023-02-11T09:57:14.262Z,5.10
2023-02-11T09:59:49.278Z,4.70
2023-02-11T10:02:24.822Z,4.77
2023-02-11T10:05:10.296Z,5.20
2023-02-11T10:07:42.983Z,4.50
2023-02-11T10:10:17.297Z,5.00
2023-02-11T10:12:57.241Z,5.37
2023-02-11T10:15:32.906Z,5.23
2023-02-11T10:18:16.141Z,5.50
2023-02-11T10:20:50.192Z,5.50
2023-02-11T10:23:20.667Z,5.53
2023-02-11T10:25:52.878Z,5.33
2023-02-11T10:28:24.671Z,5.97
2023-02-11T10:30:58.707Z,5.70
2023-02-11T10:33:30.288Z,5.43
2023-02-11T10:35:57.967Z,5.20
2023-02-11T10:38:25.828Z,5.53
2023-02-11T10:40:53.583Z,5.77
2023-02-11T10:43:24.949Z,6.13
2023-02-11T10:45:54.099Z,5.80
2023-02-11T10:48:43.355Z,5.67
2023-02-11T10:51:20.748Z,6.00
2023-02-11T10:53:49.891Z,6.00
2023-02-11T10:56:24.813Z,6.07
2023-02-11T10:58:59.057Z,5.77
2023-02-11T11:01:40.363Z,5.60
2023-02-11T11:04:37.226Z,6.07
2023-02-11T11:07:14.555Z,5.90
2023-02-11T11:09:48.608Z,5.50
2023-02-11T11:12:28.312Z,5.80
2023-02-11T11:14:56.846Z,6.40
2023-02-11T11:17:25.780Z,7.30
2023-02-11T11:19:54.831Z,6.97
2023-02-11T11:22:23.546Z,6.90
2023-02-11T11:24:54.385Z,6.47
2023-02-11T11:27:25.055Z,6.60
2023-02-11T11:29:54.707Z,6.13
2023-02-11T11:32:24.264Z,7.07
2023-02-11T11:34:55.655Z,6.50
2023-02-11T11:37:27.254Z,6.63
2023-02-11T11:39:58.739Z,6.13
2023-02-11T11:42:28.263Z,7.00
2023-02-11T11:45:00.118Z,7.40
2023-02-11T11:47:33.148Z,6.60
2023-02-11T11:50:24.088Z,7.33
2023-02-11T11:52:57.562Z,7.17
2023-02-11T11:55:27.385Z,6.60
2023-02-11T11:57:55.042Z,7.27
2023-02-11T12:00:37.434Z,7.43
2023-02-11T12:03:29.105Z,6.70
2023-02-11T12:06:12.768Z,7.63
2023-02-11T12:08:46.486Z,7.23
2023-02-11T12:11:20.986Z,6.80
2023-02-11T12:13:59.797Z,7.57
2023-02-11T12:16:36.714Z,7.50
2023-02-11T12:19:18.469Z,8.23
2023-02-11T12:21:57.585Z,7.37
2023-02-11T12:24:33.927Z,7.17
2023-02-11T12:27:05.011Z,7.00
2023-02-11T12:29:38.653Z,7.00
2023-02-11T12:32:14.449Z,7.27
2023-02-11T12:35:03.499Z,7.10
2023-02-11T12:37:43.611Z,7.53
2023-02-11T12:40:17.212Z,7.53
2023-02-11T12:43:13.349Z,7.30
2023-02-11T12:45:50.667Z,7.50
2023-02-11T12:48:27.464Z,7.40
2023-02-11T12:51:00.112Z,7.03
2023-02-11T12:53:41.430Z,8.07
2023-02-11T12:56:15.364Z,7.80
2023-02-11T12:58:45.741Z,7.40
2023-02-11T13:01:20.743Z,7.67
2023-02-11T13:03:50.188Z,7.97
2023-02-11T13:06:20.440Z,7.67
2023-02-11T13:08:51.298Z,7.70
2023-02-11T13:11:21.565Z,7.10
2023-02-11T13:13:54.838Z,6.60
2023-02-11T13:16:31.341Z,7.40
2023-02-11T13:19:04.760Z,7.23
2023-02-11T13:21:39.729Z,7.97
2023-02-11T13:24:18.870Z,7.27
2023-02-11T13:26:51.251Z,7.63
2023-02-11T13:29:28.844Z,7.73
2023-02-11T13:31:57.072Z,7.17
2023-02-11T13:34:28.637Z,7.17
2023-02-11T13:36:57.147Z,7.80
2023-02-11T13:39:26.220Z,7.77
2023-02-11T13:42:03.628Z,7.43
2023-02-11T13:44:34.802Z,7.77
2023-02-11T13:47:04.706Z,7.63
2023-02-11T13:49:36.349Z,8.50
2023-02-11T13:52:06.730Z,7.40
2023-02-11T13:54:38.882Z,8.53
2023-02-11T13:57:29.085Z,8.40
2023-02-11T13:59:58.214Z,9.17
2023-02-11T14:02:49.888Z,8.20
2023-02-11T14:05:42.710Z,8.57
2023-02-11T14:08:44.411Z,8.33
2023-02-11T14:11:41.858Z,9.87
2023-02-11T14:14:23.843Z,9.30
2023-02-11T14:17:31.995Z,9.33
2023-02-11T14:20:00.215Z,10.40
2023-02-11T14:22:29.776Z,10.53
2023-02-11T14:24:59.811Z,10.37
2023-02-11T14:27:43.742Z,10.70
2023-02-11T14:31:55.543Z,11.37
2023-02-11T14:34:39.805Z,10.17
2023-02-11T14:37:15.750Z,10.40
2023-02-11T14:39:55.687Z,10.77
2023-02-11T14:42:26.854Z,11.90
2023-02-11T14:44:56.085Z,10.90
2023-02-11T14:47:29.860Z,12.23
2023-02-11T14:49:57.853Z,11.87
2023-02-11T14:52:30.198Z,11.80
2023-02-11T14:55:17.858Z,10.30
2023-02-11T14:57:45.883Z,11.70
2023-02-11T15:00:19.008Z,12.53
2023-02-11T15:02:48.331Z,11.47
2023-02-11T15:05:19.011Z,12.07
2023-02-11T15:07:49.057Z,11.63
2023-02-11T15:10:24.311Z,11.87
2023-02-11T15:12:53.542Z,12.03
2023-02-11T15:15:21.356Z,12.23
2023-02-11T15:17:50.771Z,12.83
2023-02-11T15:20:22.102Z,12.93
2023-02-11T15:22:53.404Z,12.33
2023-02-11T15:25:22.889Z,12.00
2023-02-11T15:27:51.813Z,11.43
2023-02-11T15:30:27.257Z,12.10
2023-02-11T15:32:59.968Z,15.73
2023-02-11T15:35:29.832Z,21.07
2023-02-11T15:37:58.380Z,21.27
2023-02-11T15:40:28.896Z,24.17
2023-02-11T15:42:58.772Z,23.43
2023-02-11T15:45:29.844Z,19.47
2023-02-11T15:48:01.530Z,18.13
2023-02-11T15:50:30.470Z,17.97
2023-02-11T15:53:00.756Z,15.87
2023-02-11T15:55:29.312Z,15.40
2023-02-11T15:57:59.137Z,14.00
2023-02-11T16:00:33.154Z,14.47
2023-02-11T16:03:02.764Z,15.37
2023-02-11T16:05:32.419Z,14.10
2023-02-11T16:08:00.340Z,14.13
2023-02-11T16:10:31.441Z,13.27
2023-02-11T16:13:19.420Z,13.47
2023-02-11T16:15:49.903Z,13.10
2023-02-11T16:18:38.701Z,12.63
2023-02-11T16:21:09.396Z,12.40
2023-02-11T16:26:26.726Z,12.37
2023-02-11T16:28:54.593Z,13.10
2023-02-11T16:31:22.348Z,14.70
2023-02-11T16:33:52.063Z,13.77
2023-02-11T16:36:19.678Z,14.90
2023-02-11T16:38:47.368Z,14.03
2023-02-11T16:41:14.988Z,13.37
2023-02-11T16:43:42.673Z,14.33
2023-02-11T16:46:14.456Z,14.63
2023-02-11T16:48:42.226Z,13.80
2023-02-11T16:51:12.477Z,16.03
2023-02-11T16:53:40.155Z,15.43
2023-02-11T16:56:08.456Z,14.70
2023-02-11T16:58:36.064Z,15.53
2023-02-11T17:01:03.847Z,16.37
2023-02-11T17:03:36.167Z,16.80
2023-02-11T17:06:07.005Z,16.47
2023-02-11T17:08:36.547Z,17.47
2023-02-11T17:11:04.723Z,17.07
2023-02-11T17:13:32.633Z,21.30
2023-02-11T17:16:00.442Z,20.67
2023-02-11T17:18:28.190Z,20.37
2023-02-11T17:20:56.131Z,20.00
2023-02-11T17:23:23.831Z,18.60
2023-02-11T17:25:57.862Z,18.30
2023-02-11T17:28:25.627Z,18.87
2023-02-11T17:30:53.582Z,18.87
2023-02-11T17:33:21.227Z,17.00
2023-02-11T17:35:48.939Z,18.73
2023-02-11T17:38:16.596Z,19.97
2023-02-11T17:40:44.246Z,18.93
2023-02-11T17:43:13.250Z,20.03
2023-02-11T17:45:42.311Z,19.70
2023-02-11T17:48:09.960Z,20.07
2023-02-11T17:50:37.967Z,20.60
2023-02-11T17:53:05.595Z,20.23
2023-02-11T17:55:34.221Z,21.10
2023-02-11T17:58:01.981Z,21.47
2023-02-11T18:00:31.236Z,21.07
2023-02-11T18:03:02.728Z,19.40
2023-02-11T18:05:35.086Z,19.20
2023-02-11T18:08:03.295Z,20.07
2023-02-11T18:10:31.208Z,20.10
2023-02-11T18:12:58.865Z,19.67
2023-02-11T18:15:27.030Z,20.83
2023-02-11T18:17:56.219Z,18.90
2023-02-11T18:20:23.859Z,20.07
2023-02-11T18:22:51.571Z,20.00
2023-02-11T18:25:21.232Z,20.47
2023-02-11T18:27:48.943Z,20.80
2023-02-11T18:30:18.997Z,19.60
2023-02-11T18:32:47.065Z,19.80
2023-02-11T18:35:16.261Z,20.73
2023-02-11T18:37:44.519Z,21.57
2023-02-11T18:40:13.264Z,21.87
2023-02-11T18:42:41.115Z,21.67
2023-02-11T18:45:10.920Z,22.13
2023-02-11T18:47:38.890Z,20.77
2023-02-11T18:50:08.194Z,21.93
2023-02-11T18:52:38.452Z,21.47
2023-02-11T18:55:07.137Z,20.67
2023-02-11T18:57:34.875Z,21.27
2023-02-11T19:00:02.609Z,20.50
2023-02-11T19:02:30.372Z,22.90
2023-02-11T19:04:58.370Z,21.30
2023-02-11T19:07:26.172Z,22.27
2023-02-11T19:09:55.287Z,21.37
2023-02-11T19:12:23.014Z,22.70
2023-02-11T19:14:50.786Z,23.67
2023-02-11T19:17:18.498Z,23.60
2023-02-11T19:19:46.147Z,23.23
2023-02-11T19:22:14.020Z,23.47
2023-02-11T19:24:41.727Z,23.17
2023-02-11T19:27:11.066Z,28.70
2023-02-11T19:29:38.898Z,30.87
2023-02-11T19:32:07.276Z,28.93
2023-02-11T19:34:40.977Z,29.87
2023-02-11T19:37:10.719Z,27.13
2023-02-11T19:39:38.380Z,26.93
2023-02-11T19:42:06.498Z,26.07
2023-02-11T19:44:35.615Z,26.40
2023-02-11T19:47:03.324Z,25.50
2023-02-11T19:49:31.166Z,27.37
2023-02-11T19:51:59.040Z,28.37
2023-02-11T19:54:28.645Z,29.43
2023-02-11T19:56:56.928Z,29.17
2023-02-11T19:59:24.628Z,28.40
2023-02-11T20:01:53.946Z,27.33
2023-02-11T20:04:21.919Z,29.07
2023-02-11T20:06:49.632Z,27.80
2023-02-11T20:09:17.519Z,26.93
2023-02-11T20:11:45.423Z,27.43
2023-02-11T20:14:14.860Z,27.57
2023-02-11T20:16:49.123Z,28.93
2023-02-11T20:19:22.737Z,27.77
2023-02-11T20:21:53.148Z,28.10
2023-02-11T20:24:22.532Z,28.87
2023-02-11T20:26:55.175Z,29.07
2023-02-11T20:29:23.448Z,28.80
2023-02-11T20:31:51.638Z,28.73
2023-02-11T20:34:21.862Z,30.50
2023-02-11T20:36:52.084Z,30.17
2023-02-11T20:39:21.805Z,28.87
2023-02-11T20:41:50.089Z,30.27
2023-02-11T20:44:17.874Z,29.47
2023-02-11T20:46:47.057Z,29.13
2023-02-11T20:49:16.901Z,29.33
2023-02-11T20:51:46.078Z,27.17
2023-02-11T20:54:14.630Z,27.40
2023-02-11T20:56:42.412Z,27.50
2023-02-11T20:59:10.492Z,30.00
2023-02-11T21:01:40.648Z,27.90
2023-02-11T21:04:12.529Z,28.73
2023-02-11T21:06:41.880Z,31.33
2023-02-11T21:09:13.835Z,29.57
2023-02-11T21:11:41.564Z,30.23
2023-02-11T21:14:09.913Z,34.17
2023-02-11T21:16:37.698Z,33.87
2023-02-11T21:19:05.806Z,34.87
2023-02-11T21:21:33.492Z,36.03
2023-02-11T21:26:51.552Z,38.87
2023-02-11T21:29:19.259Z,37.83
2023-02-11T21:31:47.154Z,36.87
2023-02-11T21:34:16.088Z,35.93
2023-02-11T21:36:45.196Z,33.03
2023-02-11T21:39:13.579Z,34.03
2023-02-11T21:41:41.267Z,32.60
2023-02-11T21:44:10.392Z,32.27
2023-02-11T21:46:38.250Z,31.13
2023-02-11T21:49:06.170Z,29.57
2023-02-11T21:51:33.806Z,29.43
2023-02-11T21:54:02.459Z,27.63
2023-02-11T21:56:31.549Z,28.33
2023-02-11T21:59:00.469Z,26.47
2023-02-11T22:01:31.904Z,29.40
2023-02-11T22:04:00.197Z,27.53
2023-02-11T22:06:30.900Z,29.50
2023-02-11T22:08:59.214Z,29.97
2023-02-11T22:11:26.963Z,29.00
2023-02-11T22:13:55.357Z,30.97
2023-02-11T22:16:23.720Z,30.73
2023-02-11T22:18:53.024Z,35.77
2023-02-11T22:21:23.009Z,32.43
2023-02-11T22:23:51.339Z,31.50
2023-02-11T22:26:20.919Z,32.90
2023-02-11T22:28:49.411Z,33.47
2023-02-11T22:31:18.998Z,31.87
2023-02-11T22:33:47.049Z,31.03
2023-02-11T22:36:17.733Z,29.63
2023-02-11T22:38:45.460Z,31.10
2023-02-11T22:41:13.455Z,28.27
2023-02-11T22:43:42.879Z,30.63
2023-02-11T22:46:12.680Z,28.63
2023-02-11T22:48:40.456Z,28.93
2023-02-11T22:51:09.691Z,30.20
2023-02-11T22:53:39.257Z,28.90
2023-02-11T22:56:08.416Z,30.97
2023-02-11T22:58:37.346Z,30.87
2023-02-11T23:01:06.225Z,31.33
2023-02-11T23:03:34.604Z,30.00
2023-02-11T23:06:02.691Z,31.10
2023-02-11T23:08:31.466Z,31.43
2023-02-11T23:11:06.282Z,31.20
2023-02-11T23:13:36.594Z,31.07
2023-02-11T23:16:05.977Z,31.57
2023-02-11T23:18:34.085Z,32.00
2023-02-11T23:21:05.738Z,31.77
2023-02-11T23:23:34.089Z,31.97
2023-02-11T23:26:02.418Z,30.67
2023-02-11T23:28:31.564Z,32.03
2023-02-11T23:30:59.368Z,30.30
2023-02-11T23:33:27.044Z,30.90
2023-02-11T23:35:55.202Z,32.10
2023-02-11T23:38:23.052Z,31.13
2023-02-11T23:40:50.714Z,30.43
2023-02-11T23:43:18.388Z,30.43
2023-02-11T23:45:48.057Z,31.40
2023-02-11T23:48:15.781Z,30.93
2023-02-11T23:50:44.582Z,30.83
2023-02-11T23:53:12.557Z,30.20
2023-02-11T23:55:41.451Z,31.27
2023-02-11T23:58:10.514Z,30.37
